sensor_id;sensor_type;location;lat;lon;timestamp;pressure;altitude;pressure_sealevel;temperature;humidity
33404;BME280;19751;40.274;18.268;2023-03-14T00:01:19;101285.44;;;10.17;89.28
33404;BME280;19751;40.274;18.268;2023-03-14T00:03:45;101286.47;;;10.25;85.13
33404;BME280;19751;40.274;18.268;2023-03-14T00:06:12;101286.09;;;10.28;81.67
33404;BME280;19751;40.274;18.268;2023-03-14T00:08:38;101284.22;;;10.28;79.65
33404;BME280;19751;40.274;18.268;2023-03-14T00:11:10;101286.47;;;10.25;78.74
33404;BME280;19751;40.274;18.268;2023-03-14T00:13:37;101273.84;;;10.25;77.89
33404;BME280;19751;40.274;18.268;2023-03-14T00:16:08;101266.72;;;10.24;76.90
33404;BME280;19751;40.274;18.268;2023-03-14T00:18:34;101268.25;;;10.18;76.66
33404;BME280;19751;40.274;18.268;2023-03-14T00:21:00;101264.75;;;10.10;76.67
33404;BME280;19751;40.274;18.268;2023-03-14T00:23:29;101257.72;;;10.09;77.08
33404;BME280;19751;40.274;18.268;2023-03-14T00:26:13;101258.53;;;10.09;77.59
33404;BME280;19751;40.274;18.268;2023-03-14T00:28:39;101254.34;;;10.07;77.55
33404;BME280;19751;40.274;18.268;2023-03-14T00:31:07;101253.50;;;10.06;78.05
33404;BME280;19751;40.274;18.268;2023-03-14T00:33:33;101249.97;;;10.06;78.57
33404;BME280;19751;40.274;18.268;2023-03-14T00:36:01;101249.97;;;10.06;79.74
33404;BME280;19751;40.274;18.268;2023-03-14T00:38:27;101240.72;;;10.08;80.29
33404;BME280;19751;40.274;18.268;2023-03-14T00:40:53;101239.88;;;10.08;82.00
33404;BME280;19751;40.274;18.268;2023-03-14T00:43:20;101231.63;;;10.09;83.32
33404;BME280;19751;40.274;18.268;2023-03-14T00:45:48;101221.34;;;10.13;85.20
33404;BME280;19751;40.274;18.268;2023-03-14T00:48:13;101225.06;;;10.12;85.43
33404;BME280;19751;40.274;18.268;2023-03-14T00:50:39;101229.78;;;10.02;85.43
33404;BME280;19751;40.274;18.268;2023-03-14T00:53:05;101229.63;;;9.95;85.21
33404;BME280;19751;40.274;18.268;2023-03-14T00:55:30;101222.28;;;9.89;86.07
33404;BME280;19751;40.274;18.268;2023-03-14T00:57:56;101212.19;;;9.83;86.78
33404;BME280;19751;40.274;18.268;2023-03-14T01:00:22;101207.69;;;9.75;87.02
33404;BME280;19751;40.274;18.268;2023-03-14T01:02:48;101197.28;;;9.64;88.08
33404;BME280;19751;40.274;18.268;2023-03-14T01:05:14;101195.78;;;9.53;88.19
33404;BME280;19751;40.274;18.268;2023-03-14T01:07:40;101194.31;;;9.42;88.55
33404;BME280;19751;40.274;18.268;2023-03-14T01:10:06;101195.69;;;9.38;89.43
33404;BME280;19751;40.274;18.268;2023-03-14T01:12:32;101186.59;;;9.39;90.50
33404;BME280;19751;40.274;18.268;2023-03-14T01:14:57;101172.13;;;9.40;91.41
33404;BME280;19751;40.274;18.268;2023-03-14T01:17:23;101173.84;;;9.41;92.20
33404;BME280;19751;40.274;18.268;2023-03-14T01:19:51;101173.47;;;9.44;93.41
33404;BME280;19751;40.274;18.268;2023-03-14T01:22:16;101167.94;;;9.46;94.24
33404;BME280;19751;40.274;18.268;2023-03-14T01:24:42;101155.28;;;9.63;97.60
33404;BME280;19751;40.274;18.268;2023-03-14T01:27:07;101145.28;;;9.80;100.00
33404;BME280;19751;40.274;18.268;2023-03-14T01:29:33;101145.41;;;9.86;100.00
33404;BME280;19751;40.274;18.268;2023-03-14T01:31:58;101140.84;;;9.95;100.00
33404;BME280;19751;40.274;18.268;2023-03-14T01:34:24;101146.38;;;10.02;100.00
33404;BME280;19751;40.274;18.268;2023-03-14T01:36:49;101141.28;;;10.07;100.00
33404;BME280;19751;40.274;18.268;2023-03-14T01:39:15;101137.66;;;10.00;100.00
33404;BME280;19751;40.274;18.268;2023-03-14T01:41:40;101138.88;;;9.89;100.00
33404;BME280;19751;40.274;18.268;2023-03-14T01:44:10;101142.41;;;9.81;99.18
33404;BME280;19751;40.274;18.268;2023-03-14T01:46:38;101133.72;;;9.71;99.44
33404;BME280;19751;40.274;18.268;2023-03-14T01:51:42;101123.34;;;9.60;100.00
33404;BME280;19751;40.274;18.268;2023-03-14T01:59:34;101134.34;;;9.42;99.84
33404;BME280;19751;40.274;18.268;2023-03-14T02:02:01;101124.09;;;9.37;100.00
33404;BME280;19751;40.274;18.268;2023-03-14T02:04:30;101131.97;;;9.39;100.00
33404;BME280;19751;40.274;18.268;2023-03-14T02:07:14;101135.00;;;9.44;100.00
33404;BME280;19751;40.274;18.268;2023-03-14T02:09:41;101118.34;;;9.40;100.00
33404;BME280;19751;40.274;18.268;2023-03-14T02:12:08;101114.03;;;9.31;100.00
33404;BME280;19751;40.274;18.268;2023-03-14T02:14:35;101119.22;;;9.25;100.00
33404;BME280;19751;40.274;18.268;2023-03-14T02:17:04;101116.72;;;9.23;100.00
33404;BME280;19751;40.274;18.268;2023-03-14T02:19:52;101120.09;;;9.25;100.00
33404;BME280;19751;40.274;18.268;2023-03-14T02:22:22;101125.28;;;9.27;100.00
33404;BME280;19751;40.274;18.268;2023-03-14T02:27:27;101117.72;;;9.30;100.00
33404;BME280;19751;40.274;18.268;2023-03-14T02:30:00;101118.38;;;9.32;100.00
33404;BME280;19751;40.274;18.268;2023-03-14T02:32:27;101121.56;;;9.36;100.00
33404;BME280;19751;40.274;18.268;2023-03-14T02:34:57;101117.03;;;9.36;100.00
33404;BME280;19751;40.274;18.268;2023-03-14T02:37:26;101123.91;;;9.39;100.00
33404;BME280;19751;40.274;18.268;2023-03-14T02:39:54;101106.78;;;9.40;100.00
33404;BME280;19751;40.274;18.268;2023-03-14T02:42:20;101106.13;;;9.38;100.00
33404;BME280;19751;40.274;18.268;2023-03-14T02:44:54;101106.28;;;9.36;100.00
33404;BME280;19751;40.274;18.268;2023-03-14T02:47:26;101106.63;;;9.33;100.00
33404;BME280;19751;40.274;18.268;2023-03-14T02:50:09;101099.94;;;9.29;100.00
33404;BME280;19751;40.274;18.268;2023-03-14T02:52:35;101106.16;;;9.21;100.00
33404;BME280;19751;40.274;18.268;2023-03-14T02:55:00;101105.34;;;9.13;100.00
33404;BME280;19751;40.274;18.268;2023-03-14T02:57:26;101113.22;;;9.06;100.00
33404;BME280;19751;40.274;18.268;2023-03-14T02:59:58;101125.84;;;9.06;100.00
33404;BME280;19751;40.274;18.268;2023-03-14T03:02:25;101119.13;;;9.02;100.00
33404;BME280;19751;40.274;18.268;2023-03-14T03:04:51;101114.91;;;8.99;100.00
33404;BME280;19751;40.274;18.268;2023-03-14T03:07:17;101117.78;;;8.98;100.00
33404;BME280;19751;40.274;18.268;2023-03-14T03:09:42;101123.16;;;8.98;100.00
33404;BME280;19751;40.274;18.268;2023-03-14T03:12:08;101126.69;;;8.98;100.00
33404;BME280;19751;40.274;18.268;2023-03-14T03:14:33;101123.16;;;8.98;100.00
33404;BME280;19751;40.274;18.268;2023-03-14T03:16:59;101123.81;;;9.00;100.00
33404;BME280;19751;40.274;18.268;2023-03-14T03:19:24;101115.41;;;9.03;100.00
33404;BME280;19751;40.274;18.268;2023-03-14T03:21:50;101117.44;;;9.01;100.00
33404;BME280;19751;40.274;18.268;2023-03-14T03:24:15;101117.28;;;8.94;100.00
33404;BME280;19751;40.274;18.268;2023-03-14T03:26:41;101111.91;;;8.86;100.00
33404;BME280;19751;40.274;18.268;2023-03-14T03:29:06;101109.06;;;8.79;100.00
33404;BME280;19751;40.274;18.268;2023-03-14T03:31:32;101119.31;;;8.76;100.00
33404;BME280;19751;40.274;18.268;2023-03-14T03:33:57;101111.25;;;8.76;100.00
33404;BME280;19751;40.274;18.268;2023-03-14T03:36:24;101111.59;;;8.73;100.00
33404;BME280;19751;40.274;18.268;2023-03-14T03:38:50;101115.09;;;8.73;100.00
33404;BME280;19751;40.274;18.268;2023-03-14T03:41:16;101111.59;;;8.73;100.00
33404;BME280;19751;40.274;18.268;2023-03-14T03:43:42;101107.06;;;8.73;100.00
33404;BME280;19751;40.274;18.268;2023-03-14T03:46:08;101107.06;;;8.73;100.00
33404;BME280;19751;40.274;18.268;2023-03-14T03:48:34;101101.50;;;8.75;100.00
33404;BME280;19751;40.274;18.268;2023-03-14T03:51:00;101096.63;;;8.78;100.00
33404;BME280;19751;40.274;18.268;2023-03-14T03:53:26;101098.66;;;8.76;100.00
33404;BME280;19751;40.274;18.268;2023-03-14T03:55:51;101093.44;;;8.75;100.00
33404;BME280;19751;40.274;18.268;2023-03-14T03:58:17;101092.47;;;8.76;100.00
33404;BME280;19751;40.274;18.268;2023-03-14T04:00:42;101089.09;;;8.74;100.00
33404;BME280;19751;40.274;18.268;2023-03-14T04:03:08;101083.06;;;8.71;100.00
33404;BME280;19751;40.274;18.268;2023-03-14T04:05:34;101080.38;;;8.71;100.00
33404;BME280;19751;40.274;18.268;2023-03-14T04:08:00;101080.38;;;8.71;100.00
33404;BME280;19751;40.274;18.268;2023-03-14T04:10:26;101089.28;;;8.72;100.00
33404;BME280;19751;40.274;18.268;2023-03-14T04:12:51;101083.91;;;8.72;100.00
33404;BME280;19751;40.274;18.268;2023-03-14T04:15:17;101090.94;;;8.73;100.00
33404;BME280;19751;40.274;18.268;2023-03-14T04:17:43;101092.28;;;8.69;100.00
33404;BME280;19751;40.274;18.268;2023-03-14T04:20:09;101088.06;;;8.66;100.00
33404;BME280;19751;40.274;18.268;2023-03-14T04:22:36;101086.25;;;8.59;100.00
33404;BME280;19751;40.274;18.268;2023-03-14T04:25:02;101098.47;;;8.45;100.00
33404;BME280;19751;40.274;18.268;2023-03-14T04:27:28;101085.91;;;8.45;100.00
33404;BME280;19751;40.274;18.268;2023-03-14T04:29:54;101081.88;;;8.50;100.00
33404;BME280;19751;40.274;18.268;2023-03-14T04:32:19;101077.34;;;8.58;100.00
33404;BME280;19751;40.274;18.268;2023-03-14T04:34:45;101083.91;;;8.64;100.00
33404;BME280;19751;40.274;18.268;2023-03-14T04:37:10;101081.53;;;8.69;100.00
33404;BME280;19751;40.274;18.268;2023-03-14T04:39:36;101071.47;;;8.71;100.00
33404;BME280;19751;40.274;18.268;2023-03-14T04:42:02;101082.03;;;8.73;100.00
33404;BME280;19751;40.274;18.268;2023-03-14T04:44:27;101088.44;;;8.71;100.00
33404;BME280;19751;40.274;18.268;2023-03-14T04:46:53;101083.56;;;8.67;100.00
33404;BME280;19751;40.274;18.268;2023-03-14T04:49:18;101078.53;;;8.64;100.00
33404;BME280;19751;40.274;18.268;2023-03-14T04:51:44;101071.81;;;8.60;100.00
33404;BME280;19751;40.274;18.268;2023-03-14T04:54:09;101072.16;;;8.57;100.00
33404;BME280;19751;40.274;18.268;2023-03-14T04:56:35;101071.13;;;8.58;100.00
33404;BME280;19751;40.274;18.268;2023-03-14T04:59:01;101072.47;;;8.62;100.00
33404;BME280;19751;40.274;18.268;2023-03-14T05:01:27;101072.13;;;8.65;100.00
33404;BME280;19751;40.274;18.268;2023-03-14T05:03:52;101069.44;;;8.73;100.00
33404;BME280;19751;40.274;18.268;2023-03-14T05:06:17;101084.22;;;8.85;100.00
33404;BME280;19751;40.274;18.268;2023-03-14T05:08:43;101077.81;;;8.94;100.00
33404;BME280;19751;40.274;18.268;2023-03-14T05:11:10;101076.31;;;9.00;100.00
33404;BME280;19751;40.274;18.268;2023-03-14T05:13:36;101078.63;;;9.03;100.00
33404;BME280;19751;40.274;18.268;2023-03-14T05:16:07;101082.13;;;9.12;100.00
33404;BME280;19751;40.274;18.268;2023-03-14T05:18:33;101078.59;;;9.19;100.00
33404;BME280;19751;40.274;18.268;2023-03-14T05:20:59;101081.56;;;9.33;100.00
33404;BME280;19751;40.274;18.268;2023-03-14T05:23:24;101077.34;;;9.46;100.00
33404;BME280;19751;40.274;18.268;2023-03-14T05:25:50;101075.97;;;9.59;100.00
33404;BME280;19751;40.274;18.268;2023-03-14T05:28:15;101066.50;;;9.71;100.00
33404;BME280;19751;40.274;18.268;2023-03-14T05:30:41;101069.44;;;9.84;100.00
33404;BME280;19751;40.274;18.268;2023-03-14T05:33:07;101067.19;;;9.96;100.00
33404;BME280;19751;40.274;18.268;2023-03-14T05:35:32;101077.53;;;10.07;100.00
33404;BME280;19751;40.274;18.268;2023-03-14T05:37:58;101075.47;;;10.17;100.00
33404;BME280;19751;40.274;18.268;2023-03-14T05:40:23;101076.28;;;10.26;100.00
33404;BME280;19751;40.274;18.268;2023-03-14T05:42:49;101075.53;;;10.32;100.00
33404;BME280;19751;40.274;18.268;2023-03-14T05:45:14;101069.09;;;10.41;100.00
33404;BME280;19751;40.274;18.268;2023-03-14T05:47:40;101066.69;;;10.47;100.00
33404;BME280;19751;40.274;18.268;2023-03-14T05:50:05;101063.44;;;10.51;100.00
33404;BME280;19751;40.274;18.268;2023-03-14T05:52:31;101065.41;;;10.57;100.00
33404;BME280;19751;40.274;18.268;2023-03-14T05:54:56;101062.47;;;10.67;100.00
33404;BME280;19751;40.274;18.268;2023-03-14T05:57:22;101065.09;;;10.75;100.00
33404;BME280;19751;40.274;18.268;2023-03-14T05:59:47;101057.94;;;10.82;100.00
33404;BME280;19751;40.274;18.268;2023-03-14T06:02:13;101061.59;;;10.89;100.00
33404;BME280;19751;40.274;18.268;2023-03-14T06:04:38;101056.47;;;10.94;100.00
33404;BME280;19751;40.274;18.268;2023-03-14T06:07:04;101052.03;;;11.02;100.00
33404;BME280;19751;40.274;18.268;2023-03-14T06:09:29;101042.38;;;11.07;100.00
33404;BME280;19751;40.274;18.268;2023-03-14T06:11:55;101037.06;;;11.14;100.00
33404;BME280;19751;40.274;18.268;2023-03-14T06:14:20;101042.84;;;11.26;100.00
33404;BME280;19751;40.274;18.268;2023-03-14T06:16:46;101039.22;;;11.33;100.00
33404;BME280;19751;40.274;18.268;2023-03-14T06:19:16;101037.63;;;11.39;100.00
33404;BME280;19751;40.274;18.268;2023-03-14T06:21:42;101039.13;;;11.41;100.00
33404;BME280;19751;40.274;18.268;2023-03-14T06:24:07;101032.31;;;11.45;100.00
33404;BME280;19751;40.274;18.268;2023-03-14T06:26:33;101031.38;;;11.53;100.00
33404;BME280;19751;40.274;18.268;2023-03-14T06:28:58;101038.91;;;11.58;100.00
33404;BME280;19751;40.274;18.268;2023-03-14T06:31:31;101028.19;;;11.64;100.00
33404;BME280;19751;40.274;18.268;2023-03-14T06:33:57;101018.09;;;11.73;100.00
33404;BME280;19751;40.274;18.268;2023-03-14T06:36:23;101010.94;;;11.80;100.00
33404;BME280;19751;40.274;18.268;2023-03-14T06:38:48;101014.56;;;11.87;100.00
33404;BME280;19751;40.274;18.268;2023-03-14T06:41:14;101021.91;;;11.93;100.00
33404;BME280;19751;40.274;18.268;2023-03-14T06:43:40;101024.69;;;12.00;100.00
33404;BME280;19751;40.274;18.268;2023-03-14T06:46:05;101027.88;;;12.10;100.00
33404;BME280;19751;40.274;18.268;2023-03-14T06:48:31;101025.88;;;12.19;100.00
33404;BME280;19751;40.274;18.268;2023-03-14T06:50:56;101024.75;;;12.28;100.00
33404;BME280;19751;40.274;18.268;2023-03-14T06:53:22;101019.38;;;12.35;100.00
33404;BME280;19751;40.274;18.268;2023-03-14T06:55:48;101026.72;;;12.41;100.00
33404;BME280;19751;40.274;18.268;2023-03-14T06:58:13;101017.00;;;12.47;100.00
33404;BME280;19751;40.274;18.268;2023-03-14T07:00:39;101010.84;;;12.53;100.00
33404;BME280;19751;40.274;18.268;2023-03-14T07:03:04;101016.28;;;12.59;100.00
33404;BME280;19751;40.274;18.268;2023-03-14T07:05:30;101010.94;;;12.66;100.00
33404;BME280;19751;40.274;18.268;2023-03-14T07:07:56;101013.66;;;12.73;100.00
33404;BME280;19751;40.274;18.268;2023-03-14T07:10:22;101016.88;;;12.83;100.00
33404;BME280;19751;40.274;18.268;2023-03-14T07:12:47;101014.84;;;12.91;100.00
33404;BME280;19751;40.274;18.268;2023-03-14T07:15:27;101018.66;;;13.04;100.00
33404;BME280;19751;40.274;18.268;2023-03-14T07:17:52;101009.13;;;13.08;100.00
33404;BME280;19751;40.274;18.268;2023-03-14T07:20:18;101017.84;;;13.10;100.00
33404;BME280;19751;40.274;18.268;2023-03-14T07:22:43;101022.66;;;13.14;100.00
33404;BME280;19751;40.274;18.268;2023-03-14T07:25:09;101022.28;;;13.17;100.00
33404;BME280;19751;40.274;18.268;2023-03-14T07:27:37;101012.94;;;13.20;100.00
33404;BME280;19751;40.274;18.268;2023-03-14T07:30:03;101016.75;;;13.26;100.00
33404;BME280;19751;40.274;18.268;2023-03-14T07:32:29;101016.78;;;13.32;100.00
33404;BME280;19751;40.274;18.268;2023-03-14T07:34:54;101015.34;;;13.36;100.00
33404;BME280;19751;40.274;18.268;2023-03-14T07:37:20;101009.75;;;13.45;100.00
33404;BME280;19751;40.274;18.268;2023-03-14T07:39:45;101009.78;;;13.51;100.00
33404;BME280;19751;40.274;18.268;2023-03-14T07:42:11;101008.97;;;13.57;100.00
33404;BME280;19751;40.274;18.268;2023-03-14T07:44:36;101019.63;;;13.65;100.00
33404;BME280;19751;40.274;18.268;2023-03-14T07:47:02;101014.44;;;13.71;100.00
33404;BME280;19751;40.274;18.268;2023-03-14T07:49:27;101011.31;;;13.74;100.00
33404;BME280;19751;40.274;18.268;2023-03-14T07:51:53;101016.75;;;13.80;100.00
33404;BME280;19751;40.274;18.268;2023-03-14T07:54:18;101011.34;;;13.87;100.00
33404;BME280;19751;40.274;18.268;2023-03-14T07:56:44;101011.56;;;13.92;100.00
33404;BME280;19751;40.274;18.268;2023-03-14T07:59:09;101008.25;;;13.97;100.00
33404;BME280;19751;40.274;18.268;2023-03-14T08:01:36;101012.84;;;14.03;100.00
33404;BME280;19751;40.274;18.268;2023-03-14T08:04:01;101007.44;;;14.09;100.00
33404;BME280;19751;40.274;18.268;2023-03-14T08:06:27;101015.81;;;14.14;100.00
33404;BME280;19751;40.274;18.268;2023-03-14T08:08:52;101009.94;;;14.17;100.00
33404;BME280;19751;40.274;18.268;2023-03-14T08:11:18;101019.75;;;14.25;100.00
33404;BME280;19751;40.274;18.268;2023-03-14T08:13:44;101008.09;;;14.31;100.00
33404;BME280;19751;40.274;18.268;2023-03-14T08:16:15;101008.31;;;14.36;100.00
33404;BME280;19751;40.274;18.268;2023-03-14T08:18:41;101007.47;;;14.42;100.00
33404;BME280;19751;40.274;18.268;2023-03-14T08:21:07;101001.88;;;14.51;100.00
33404;BME280;19751;40.274;18.268;2023-03-14T08:23:33;101006.06;;;14.60;100.00
33404;BME280;19751;40.274;18.268;2023-03-14T08:25:59;100996.84;;;14.67;100.00
33404;BME280;19751;40.274;18.268;2023-03-14T08:28:24;100999.97;;;14.71;100.00
33404;BME280;19751;40.274;18.268;2023-03-14T08:30:56;100999.34;;;14.76;100.00
33404;BME280;19751;40.274;18.268;2023-03-14T08:33:22;100990.38;;;14.82;100.00
33404;BME280;19751;40.274;18.268;2023-03-14T08:35:51;100983.69;;;14.84;100.00
33404;BME280;19751;40.274;18.268;2023-03-14T08:38:16;100981.59;;;14.86;100.00
33404;BME280;19751;40.274;18.268;2023-03-14T08:40:43;100987.22;;;14.91;100.00
33404;BME280;19751;40.274;18.268;2023-03-14T08:43:09;100977.81;;;15.01;100.00
33404;BME280;19751;40.274;18.268;2023-03-14T08:45:34;100971.13;;;15.10;100.00
33404;BME280;19751;40.274;18.268;2023-03-14T08:48:00;100959.59;;;15.21;100.00
33404;BME280;19751;40.274;18.268;2023-03-14T08:50:25;100963.34;;;15.27;100.00
33404;BME280;19751;40.274;18.268;2023-03-14T08:52:51;100949.06;;;15.38;100.00
33404;BME280;19751;40.274;18.268;2023-03-14T08:55:17;100951.34;;;15.48;100.00
33404;BME280;19751;40.274;18.268;2023-03-14T08:57:42;100943.16;;;15.54;100.00
33404;BME280;19751;40.274;18.268;2023-03-14T09:00:09;100945.84;;;15.61;100.00
33404;BME280;19751;40.274;18.268;2023-03-14T09:02:37;100943.97;;;15.68;100.00
33404;BME280;19751;40.274;18.268;2023-03-14T09:05:03;100938.06;;;15.71;100.00
33404;BME280;19751;40.274;18.268;2023-03-14T09:07:29;100935.56;;;15.76;100.00
33404;BME280;19751;40.274;18.268;2023-03-14T09:09:54;100932.19;;;15.81;100.00
33404;BME280;19751;40.274;18.268;2023-03-14T09:12:20;100920.66;;;15.85;100.00
33404;BME280;19751;40.274;18.268;2023-03-14T09:14:45;100925.19;;;15.91;100.00
33404;BME280;19751;40.274;18.268;2023-03-14T09:17:11;100918.44;;;16.01;100.00
33404;BME280;19751;40.274;18.268;2023-03-14T09:19:37;100916.88;;;16.11;100.00
33404;BME280;19751;40.274;18.268;2023-03-14T09:22:02;100924.94;;;16.25;100.00
33404;BME280;19751;40.274;18.268;2023-03-14T09:24:28;100916.09;;;16.29;98.06
33404;BME280;19751;40.274;18.268;2023-03-14T09:26:55;100915.06;;;16.30;95.08
33404;BME280;19751;40.274;18.268;2023-03-14T09:29:21;100911.88;;;16.33;92.70
33404;BME280;19751;40.274;18.268;2023-03-14T09:31:47;100912.50;;;16.35;90.50
33404;BME280;19751;40.274;18.268;2023-03-14T09:34:12;100911.44;;;16.36;94.08
33404;BME280;19751;40.274;18.268;2023-03-14T09:36:38;100903.84;;;16.45;95.08
33404;BME280;19751;40.274;18.268;2023-03-14T09:39:05;100903.78;;;16.52;93.05
33404;BME280;19751;40.274;18.268;2023-03-14T09:41:35;100889.50;;;16.56;90.28
33404;BME280;19751;40.274;18.268;2023-03-14T09:44:08;100896.38;;;16.59;89.40
33404;BME280;19751;40.274;18.268;2023-03-14T09:46:37;100887.75;;;16.62;84.98
33404;BME280;19751;40.274;18.268;2023-03-14T09:49:11;100884.00;;;16.63;85.68
33404;BME280;19751;40.274;18.268;2023-03-14T09:51:37;100886.72;;;16.63;87.39
33404;BME280;19751;40.274;18.268;2023-03-14T09:54:03;100873.13;;;16.63;86.16
33404;BME280;19751;40.274;18.268;2023-03-14T09:56:32;100870.31;;;16.70;95.25
33404;BME280;19751;40.274;18.268;2023-03-14T09:59:00;100860.44;;;16.75;100.00
33404;BME280;19751;40.274;18.268;2023-03-14T10:01:30;100861.66;;;16.79;100.00
33404;BME280;19751;40.274;18.268;2023-03-14T10:04:00;100862.28;;;16.81;100.00
33404;BME280;19751;40.274;18.268;2023-03-14T10:06:29;100857.06;;;16.80;100.00
33404;BME280;19751;40.274;18.268;2023-03-14T10:08:55;100860.81;;;16.79;100.00
33404;BME280;19751;40.274;18.268;2023-03-14T10:11:23;100856.22;;;16.79;100.00
33404;BME280;19751;40.274;18.268;2023-03-14T10:14:03;100855.38;;;16.79;100.00
33404;BME280;19751;40.274;18.268;2023-03-14T10:16:34;100848.72;;;16.75;100.00
33404;BME280;19751;40.274;18.268;2023-03-14T10:19:06;100839.53;;;16.76;100.00
33404;BME280;19751;40.274;18.268;2023-03-14T10:21:43;100846.25;;;16.73;100.00
33404;BME280;19751;40.274;18.268;2023-03-14T10:24:10;100855.84;;;16.76;100.00
33404;BME280;19751;40.274;18.268;2023-03-14T10:26:43;100844.56;;;16.72;100.00
33404;BME280;19751;40.274;18.268;2023-03-14T10:29:11;100849.84;;;16.67;100.00
33404;BME280;19751;40.274;18.268;2023-03-14T10:32:06;100835.06;;;16.63;100.00
33404;BME280;19751;40.274;18.268;2023-03-14T10:34:36;100831.34;;;16.57;100.00
33404;BME280;19751;40.274;18.268;2023-03-14T10:37:22;100831.13;;;16.59;100.00
33404;BME280;19751;40.274;18.268;2023-03-14T10:39:52;100815.41;;;16.61;100.00
33404;BME280;19751;40.274;18.268;2023-03-14T10:42:26;100809.13;;;16.60;100.00
33404;BME280;19751;40.274;18.268;2023-03-14T10:44:59;100806.66;;;16.59;100.00
33404;BME280;19751;40.274;18.268;2023-03-14T10:47:26;100802.25;;;16.58;100.00
33404;BME280;19751;40.274;18.268;2023-03-14T10:49:54;100800.59;;;16.57;100.00
33404;BME280;19751;40.274;18.268;2023-03-14T10:52:25;100796.59;;;16.59;100.00
33404;BME280;19751;40.274;18.268;2023-03-14T10:54:57;100785.25;;;16.62;100.00
33404;BME280;19751;40.274;18.268;2023-03-14T10:57:23;100786.69;;;16.65;100.00
33404;BME280;19751;40.274;18.268;2023-03-14T10:59:49;100781.84;;;16.67;100.00
33404;BME280;19751;40.274;18.268;2023-03-14T11:07:42;100762.34;;;16.70;100.00
33404;BME280;19751;40.274;18.268;2023-03-14T11:10:34;100775.75;;;16.72;100.00
33404;BME280;19751;40.274;18.268;2023-03-14T11:16:40;100756.31;;;16.86;100.00
33404;BME280;19751;40.274;18.268;2023-03-14T11:27:44;100753.38;;;16.88;100.00
33404;BME280;19751;40.274;18.268;2023-03-14T11:30:33;100748.59;;;16.83;100.00
33404;BME280;19751;40.274;18.268;2023-03-14T11:35:52;100751.25;;;16.72;100.00
33404;BME280;19751;40.274;18.268;2023-03-14T11:40:56;100742.56;;;16.81;100.00
33404;BME280;19751;40.274;18.268;2023-03-14T11:46:05;100736.81;;;16.89;100.00
33404;BME280;19751;40.274;18.268;2023-03-14T11:51:38;100738.84;;;16.94;100.00
33404;BME280;19751;40.274;18.268;2023-03-14T11:59:23;100719.47;;;17.02;100.00
33404;BME280;19751;40.274;18.268;2023-03-14T12:02:00;100714.84;;;17.03;100.00
33404;BME280;19751;40.274;18.268;2023-03-14T12:07:39;100702.31;;;17.02;100.00
33404;BME280;19751;40.274;18.268;2023-03-14T12:10:05;100690.09;;;17.04;100.00
33404;BME280;19751;40.274;18.268;2023-03-14T12:12:31;100687.28;;;16.99;100.00
33404;BME280;19751;40.274;18.268;2023-03-14T12:15:04;100690.94;;;16.93;100.00
33404;BME280;19751;40.274;18.268;2023-03-14T12:17:38;100692.47;;;16.89;100.00
33404;BME280;19751;40.274;18.268;2023-03-14T12:25:24;100665.84;;;16.91;100.00
33404;BME280;19751;40.274;18.268;2023-03-14T12:35:47;100653.28;;;16.78;100.00
33404;BME280;19751;40.274;18.268;2023-03-14T12:41:25;100636.66;;;16.68;100.00
33404;BME280;19751;40.274;18.268;2023-03-14T12:43:52;100639.25;;;16.63;100.00
33404;BME280;19751;40.274;18.268;2023-03-14T12:48:49;100619.94;;;16.53;100.00
33404;BME280;19751;40.274;18.268;2023-03-14T12:51:20;100605.75;;;16.51;100.00
33404;BME280;19751;40.274;18.268;2023-03-14T13:04:48;100569.69;;;16.44;100.00
33404;BME280;19751;40.274;18.268;2023-03-14T13:07:35;100570.25;;;16.46;100.00
33404;BME280;19751;40.274;18.268;2023-03-14T13:10:27;100556.47;;;16.47;100.00
33404;BME280;19751;40.274;18.268;2023-03-14T13:13:22;100553.88;;;16.52;100.00
33404;BME280;19751;40.274;18.268;2023-03-14T13:15:48;100549.38;;;16.58;100.00
33404;BME280;19751;40.274;18.268;2023-03-14T13:18:50;100548.34;;;16.59;100.00
33404;BME280;19751;40.274;18.268;2023-03-14T13:21:24;100541.09;;;16.53;100.00
33404;BME280;19751;40.274;18.268;2023-03-14T13:24:02;100525.25;;;16.50;100.00
33404;BME280;19751;40.274;18.268;2023-03-14T13:26:36;100529.63;;;16.51;100.00
33404;BME280;19751;40.274;18.268;2023-03-14T13:29:19;100521.00;;;16.54;100.00
33404;BME280;19751;40.274;18.268;2023-03-14T13:31:51;100524.06;;;16.57;100.00
33404;BME280;19751;40.274;18.268;2023-03-14T13:34:17;100517.69;;;16.52;100.00
33404;BME280;19751;40.274;18.268;2023-03-14T13:36:43;100508.22;;;16.54;100.00
33404;BME280;19751;40.274;18.268;2023-03-14T13:39:13;100511.91;;;16.60;100.00
33404;BME280;19751;40.274;18.268;2023-03-14T13:41:40;100482.69;;;16.67;100.00
33404;BME280;19751;40.274;18.268;2023-03-14T13:44:07;100480.97;;;16.73;100.00
33404;BME280;19751;40.274;18.268;2023-03-14T13:46:35;100473.75;;;16.78;100.00
33404;BME280;19751;40.274;18.268;2023-03-14T13:49:03;100471.38;;;16.82;100.00
33404;BME280;19751;40.274;18.268;2023-03-14T13:51:31;100482.88;;;16.84;100.00
33404;BME280;19751;40.274;18.268;2023-03-14T13:54:00;100472.81;;;16.84;100.00
33404;BME280;19751;40.274;18.268;2023-03-14T13:56:28;100482.97;;;16.77;100.00